createdAt,value
2018-05-01T13:57:01.452Z,47.80
2018-05-01T13:59:31.627Z,48.20
2018-05-01T14:02:01.764Z,48.50
2018-05-01T14:27:48.582Z,40.70
2018-05-01T14:30:19.800Z,40.30
2018-05-01T14:41:52.421Z,35.80
2018-05-01T15:06:13.660Z,32.40
2018-05-01T15:24:53.838Z,30.10
2018-05-01T15:27:21.184Z,30.90
2018-05-01T15:31:24.683Z,31.40
2018-05-01T15:33:51.192Z,31.20
2018-05-01T16:16:09.222Z,36.30
2018-05-01T16:30:32.303Z,38.10
2018-05-01T16:33:02.577Z,36.90
2018-05-01T16:35:30.043Z,38.00
2018-05-01T16:38:00.236Z,39.50
2018-05-01T16:40:28.196Z,38.20
2018-05-01T16:42:55.940Z,38.40
2018-05-01T16:45:23.069Z,37.60
2018-05-01T16:47:51.233Z,36.50
2018-05-01T16:52:58.949Z,33.60
2018-05-01T16:55:27.753Z,33.10
2018-05-01T16:57:56.532Z,32.10
2018-05-01T17:00:24.035Z,32.80
2018-05-01T17:02:51.574Z,31.60
2018-05-01T17:05:19.845Z,30.70
2018-05-01T17:07:47.561Z,30.50
2018-05-01T17:10:15.047Z,31.10
2018-05-01T17:12:42.576Z,32.20
2018-05-01T17:15:11.356Z,30.50
2018-05-01T17:17:40.016Z,29.90
2018-05-01T17:20:08.938Z,29.80
2018-05-01T17:22:36.056Z,29.90
2018-05-01T17:27:36.062Z,29.30
2018-05-01T17:30:04.866Z,29.80
2018-05-01T17:32:32.774Z,30.00
2018-05-01T17:36:04.633Z,30.60
2018-05-01T17:41:12.589Z,29.20
2018-05-01T17:43:41.214Z,29.80
2018-05-01T17:46:12.350Z,29.10
2018-05-01T17:48:40.883Z,28.50
2018-05-01T17:51:08.215Z,28.50
2018-05-01T17:53:36.576Z,28.80
2018-05-01T17:56:04.053Z,28.60
2018-05-01T17:58:32.588Z,28.50
2018-05-01T18:01:00.190Z,28.40
2018-05-01T18:03:32.595Z,28.90
2018-05-01T18:06:00.199Z,28.70
2018-05-01T18:08:28.596Z,29.10
2018-05-01T18:13:31.581Z,29.50
2018-05-01T18:15:59.250Z,29.80
2018-05-01T18:18:27.211Z,29.80
2018-05-01T18:20:55.073Z,29.90
2018-05-01T18:23:23.668Z,29.80
2018-05-01T18:25:54.223Z,29.80
2018-05-01T18:28:21.857Z,30.20
2018-05-01T18:30:49.415Z,30.30
2018-05-01T18:33:17.253Z,30.30
2018-05-01T18:35:45.007Z,30.80
2018-05-01T18:38:12.225Z,30.90
2018-05-01T18:40:40.628Z,31.60
2018-05-01T18:43:08.262Z,30.90
2018-05-01T18:45:36.230Z,31.20
2018-05-01T18:48:04.199Z,31.60
2018-05-01T18:50:40.391Z,31.80
2018-05-01T18:55:49.193Z,31.80
2018-05-01T19:00:28.827Z,32.30
2018-05-01T19:02:57.240Z,31.60
2018-05-01T19:05:25.833Z,32.30
2018-05-01T19:07:54.994Z,32.70
2018-05-01T19:10:23.007Z,32.90
2018-05-01T19:12:51.768Z,33.00
2018-05-01T19:15:22.673Z,33.00
2018-05-01T19:17:50.330Z,32.80
2018-05-01T19:20:18.259Z,33.10
2018-05-01T19:22:46.233Z,34.00
2018-05-01T19:25:15.052Z,33.20
2018-05-01T19:27:43.634Z,32.90
2018-05-01T19:30:11.374Z,33.40
2018-05-01T19:32:43.247Z,33.50
2018-05-01T19:35:11.832Z,33.60
2018-05-01T19:37:39.680Z,33.60
2018-05-01T19:40:09.065Z,33.60
2018-05-01T19:42:37.047Z,33.50
2018-05-01T19:45:08.326Z,33.40
2018-05-01T19:47:37.031Z,33.40
2018-05-01T19:51:05.306Z,34.00
2018-05-01T19:53:33.303Z,33.60
2018-05-01T19:58:30.304Z,33.40
2018-05-01T20:00:59.221Z,33.30
2018-05-01T20:03:27.025Z,32.90
2018-05-01T20:05:56.416Z,33.80
2018-05-01T20:08:25.055Z,33.30
2018-05-01T20:10:53.019Z,34.10
2018-05-01T20:13:20.220Z,33.80
2018-05-01T20:15:47.977Z,33.70
2018-05-01T20:18:16.780Z,33.00
2018-05-01T20:20:44.480Z,34.30
2018-05-01T20:23:12.200Z,33.70
2018-05-01T20:25:39.950Z,34.00
2018-05-01T20:28:07.156Z,34.20
2018-05-01T20:30:34.792Z,34.30
2018-05-01T20:33:03.718Z,33.70
2018-05-01T20:35:32.060Z,34.00
2018-05-01T20:37:59.640Z,33.90
2018-05-01T20:40:27.212Z,33.90
2018-05-01T20:42:55.609Z,34.00
2018-05-01T20:45:23.067Z,33.70
2018-05-01T20:47:50.591Z,34.40
2018-05-01T20:50:18.975Z,34.70
2018-05-01T20:52:47.546Z,34.30
2018-05-01T20:55:15.234Z,34.50
2018-05-01T20:57:43.189Z,34.30
2018-05-01T21:00:10.949Z,34.50
2018-05-01T21:02:38.070Z,34.60
2018-05-01T21:05:05.563Z,34.10
2018-05-01T21:07:33.246Z,34.70
2018-05-01T21:10:00.989Z,35.50
2018-05-01T21:12:28.206Z,34.70
2018-05-01T21:14:55.956Z,34.20
2018-05-01T21:17:23.598Z,37.60
2018-05-01T21:22:18.413Z,36.10
2018-05-01T21:27:00.404Z,36.30
2018-05-01T21:29:27.287Z,36.30
2018-05-01T21:31:54.288Z,36.40
